sensor_id;sensor_type;location;lat;lon;timestamp;P1;durP1;ratioP1;P2;durP2;ratioP2
33810;SDS011;20119;48.334;16.206;2023-04-24T00:01:57;7.38;;;6.28;;
33810;SDS011;20119;48.334;16.206;2023-04-24T00:04:25;6.60;;;5.90;;
33810;SDS011;20119;48.334;16.206;2023-04-24T00:06:52;7.68;;;6.40;;
33810;SDS011;20119;48.334;16.206;2023-04-24T00:09:22;8.13;;;6.32;;
33810;SDS011;20119;48.334;16.206;2023-04-24T00:11:50;9.02;;;6.43;;
33810;SDS011;20119;48.334;16.206;2023-04-24T00:14:18;7.72;;;6.07;;
33810;SDS011;20119;48.334;16.206;2023-04-24T00:16:46;8.70;;;6.30;;
33810;SDS011;20119;48.334;16.206;2023-04-24T00:19:15;8.32;;;6.10;;
33810;SDS011;20119;48.334;16.206;2023-04-24T00:21:46;9.05;;;6.43;;
33810;SDS011;20119;48.334;16.206;2023-04-24T00:24:15;7.22;;;6.35;;
33810;SDS011;20119;48.334;16.206;2023-04-24T00:26:44;7.93;;;6.47;;
33810;SDS011;20119;48.334;16.206;2023-04-24T00:29:12;9.25;;;6.55;;
33810;SDS011;20119;48.334;16.206;2023-04-24T00:31:40;7.65;;;6.60;;
33810;SDS011;20119;48.334;16.206;2023-04-24T00:34:10;8.68;;;7.00;;
33810;SDS011;20119;48.334;16.206;2023-04-24T00:36:40;9.75;;;7.20;;
33810;SDS011;20119;48.334;16.206;2023-04-24T00:39:07;9.30;;;7.37;;
33810;SDS011;20119;48.334;16.206;2023-04-24T00:41:35;10.23;;;7.35;;
33810;SDS011;20119;48.334;16.206;2023-04-24T00:44:02;9.10;;;7.15;;
33810;SDS011;20119;48.334;16.206;2023-04-24T00:46:29;8.98;;;7.93;;
33810;SDS011;20119;48.334;16.206;2023-04-24T00:48:57;9.65;;;8.18;;
33810;SDS011;20119;48.334;16.206;2023-04-24T00:51:25;11.90;;;8.80;;
33810;SDS011;20119;48.334;16.206;2023-04-24T00:53:55;11.18;;;9.10;;
33810;SDS011;20119;48.334;16.206;2023-04-24T00:56:22;12.27;;;9.30;;
33810;SDS011;20119;48.334;16.206;2023-04-24T00:58:51;10.70;;;9.35;;
33810;SDS011;20119;48.334;16.206;2023-04-24T01:01:19;10.73;;;9.63;;
33810;SDS011;20119;48.334;16.206;2023-04-24T01:03:48;11.15;;;9.98;;
33810;SDS011;20119;48.334;16.206;2023-04-24T01:06:18;11.32;;;10.15;;
33810;SDS011;20119;48.334;16.206;2023-04-24T01:08:46;15.65;;;10.68;;
33810;SDS011;20119;48.334;16.206;2023-04-24T01:11:16;12.02;;;10.23;;
33810;SDS011;20119;48.334;16.206;2023-04-24T01:13:44;16.02;;;10.20;;
33810;SDS011;20119;48.334;16.206;2023-04-24T01:16:12;11.35;;;10.18;;
33810;SDS011;20119;48.334;16.206;2023-04-24T01:18:42;14.00;;;10.00;;
33810;SDS011;20119;48.334;16.206;2023-04-24T01:21:09;14.85;;;10.73;;
33810;SDS011;20119;48.334;16.206;2023-04-24T01:23:42;11.98;;;10.38;;
33810;SDS011;20119;48.334;16.206;2023-04-24T01:26:10;13.30;;;10.68;;
33810;SDS011;20119;48.334;16.206;2023-04-24T01:28:39;12.60;;;11.00;;
33810;SDS011;20119;48.334;16.206;2023-04-24T01:31:06;12.45;;;10.98;;
33810;SDS011;20119;48.334;16.206;2023-04-24T01:33:33;18.45;;;11.20;;
33810;SDS011;20119;48.334;16.206;2023-04-24T01:36:00;12.27;;;10.63;;
33810;SDS011;20119;48.334;16.206;2023-04-24T01:38:27;12.30;;;11.00;;
33810;SDS011;20119;48.334;16.206;2023-04-24T01:40:57;14.00;;;11.32;;
33810;SDS011;20119;48.334;16.206;2023-04-24T01:43:24;11.85;;;10.43;;
33810;SDS011;20119;48.334;16.206;2023-04-24T01:45:53;11.75;;;10.02;;
33810;SDS011;20119;48.334;16.206;2023-04-24T01:48:20;12.75;;;10.68;;
33810;SDS011;20119;48.334;16.206;2023-04-24T01:50:48;12.32;;;10.23;;
33810;SDS011;20119;48.334;16.206;2023-04-24T01:53:16;12.80;;;9.95;;
33810;SDS011;20119;48.334;16.206;2023-04-24T01:55:44;12.82;;;10.13;;
33810;SDS011;20119;48.334;16.206;2023-04-24T01:58:13;10.80;;;9.73;;
33810;SDS011;20119;48.334;16.206;2023-04-24T02:00:40;11.45;;;9.85;;
33810;SDS011;20119;48.334;16.206;2023-04-24T02:03:08;11.75;;;10.55;;
33810;SDS011;20119;48.334;16.206;2023-04-24T02:05:35;14.50;;;10.93;;
33810;SDS011;20119;48.334;16.206;2023-04-24T02:08:03;13.52;;;10.88;;
33810;SDS011;20119;48.334;16.206;2023-04-24T02:10:31;14.48;;;11.43;;
33810;SDS011;20119;48.334;16.206;2023-04-24T02:12:59;14.82;;;11.43;;
33810;SDS011;20119;48.334;16.206;2023-04-24T02:15:27;13.80;;;11.07;;
33810;SDS011;20119;48.334;16.206;2023-04-24T02:17:55;15.00;;;11.10;;
33810;SDS011;20119;48.334;16.206;2023-04-24T02:20:23;12.65;;;10.35;;
33810;SDS011;20119;48.334;16.206;2023-04-24T02:22:50;14.30;;;10.60;;
33810;SDS011;20119;48.334;16.206;2023-04-24T02:25:18;14.40;;;10.98;;
33810;SDS011;20119;48.334;16.206;2023-04-24T02:27:45;13.60;;;11.82;;
33810;SDS011;20119;48.334;16.206;2023-04-24T02:30:13;13.40;;;11.70;;
33810;SDS011;20119;48.334;16.206;2023-04-24T02:32:42;15.15;;;11.95;;
33810;SDS011;20119;48.334;16.206;2023-04-24T02:35:09;13.90;;;12.18;;
33810;SDS011;20119;48.334;16.206;2023-04-24T02:37:36;18.60;;;12.98;;
33810;SDS011;20119;48.334;16.206;2023-04-24T02:40:04;14.77;;;12.98;;
33810;SDS011;20119;48.334;16.206;2023-04-24T02:42:33;15.48;;;13.65;;
33810;SDS011;20119;48.334;16.206;2023-04-24T02:45:01;15.75;;;14.15;;
33810;SDS011;20119;48.334;16.206;2023-04-24T02:47:29;17.30;;;14.88;;
33810;SDS011;20119;48.334;16.206;2023-04-24T02:49:57;19.33;;;15.90;;
33810;SDS011;20119;48.334;16.206;2023-04-24T02:52:25;18.58;;;16.00;;
33810;SDS011;20119;48.334;16.206;2023-04-24T02:54:52;15.98;;;14.25;;
33810;SDS011;20119;48.334;16.206;2023-04-24T02:57:20;16.10;;;14.38;;
33810;SDS011;20119;48.334;16.206;2023-04-24T02:59:47;17.77;;;14.45;;
33810;SDS011;20119;48.334;16.206;2023-04-24T03:02:14;15.13;;;13.52;;
33810;SDS011;20119;48.334;16.206;2023-04-24T03:04:42;16.20;;;13.23;;
33810;SDS011;20119;48.334;16.206;2023-04-24T03:07:11;15.88;;;13.27;;
33810;SDS011;20119;48.334;16.206;2023-04-24T03:09:39;16.77;;;14.23;;
33810;SDS011;20119;48.334;16.206;2023-04-24T03:12:07;15.57;;;13.75;;
33810;SDS011;20119;48.334;16.206;2023-04-24T03:14:34;16.38;;;13.57;;
33810;SDS011;20119;48.334;16.206;2023-04-24T03:17:02;15.18;;;13.57;;
33810;SDS011;20119;48.334;16.206;2023-04-24T03:19:30;17.55;;;13.63;;
33810;SDS011;20119;48.334;16.206;2023-04-24T03:21:58;14.82;;;13.25;;
33810;SDS011;20119;48.334;16.206;2023-04-24T03:24:30;21.90;;;14.15;;
33810;SDS011;20119;48.334;16.206;2023-04-24T03:26:57;15.68;;;14.05;;
33810;SDS011;20119;48.334;16.206;2023-04-24T03:29:25;15.63;;;13.55;;
33810;SDS011;20119;48.334;16.206;2023-04-24T03:31:52;15.50;;;14.00;;
33810;SDS011;20119;48.334;16.206;2023-04-24T03:34:20;15.73;;;14.00;;
33810;SDS011;20119;48.334;16.206;2023-04-24T03:36:47;16.35;;;14.65;;
33810;SDS011;20119;48.334;16.206;2023-04-24T03:39:15;16.67;;;14.98;;
33810;SDS011;20119;48.334;16.206;2023-04-24T03:41:43;16.08;;;14.38;;
33810;SDS011;20119;48.334;16.206;2023-04-24T03:44:10;16.25;;;14.55;;
33810;SDS011;20119;48.334;16.206;2023-04-24T03:46:38;18.10;;;15.05;;
33810;SDS011;20119;48.334;16.206;2023-04-24T03:49:05;16.50;;;14.73;;
33810;SDS011;20119;48.334;16.206;2023-04-24T03:51:33;17.40;;;14.70;;
33810;SDS011;20119;48.334;16.206;2023-04-24T03:54:02;16.25;;;14.43;;
33810;SDS011;20119;48.334;16.206;2023-04-24T03:56:30;16.38;;;14.27;;
33810;SDS011;20119;48.334;16.206;2023-04-24T03:58:59;16.02;;;13.60;;
33810;SDS011;20119;48.334;16.206;2023-04-24T04:01:27;17.15;;;13.65;;
33810;SDS011;20119;48.334;16.206;2023-04-24T04:03:56;15.70;;;13.15;;
33810;SDS011;20119;48.334;16.206;2023-04-24T04:06:23;14.95;;;13.20;;
33810;SDS011;20119;48.334;16.206;2023-04-24T04:08:52;13.63;;;12.07;;
33810;SDS011;20119;48.334;16.206;2023-04-24T04:11:19;13.55;;;12.15;;
33810;SDS011;20119;48.334;16.206;2023-04-24T04:13:46;12.23;;;10.95;;
33810;SDS011;20119;48.334;16.206;2023-04-24T04:16:15;12.25;;;10.65;;
33810;SDS011;20119;48.334;16.206;2023-04-24T04:18:42;12.90;;;10.70;;
33810;SDS011;20119;48.334;16.206;2023-04-24T04:21:10;10.95;;;9.85;;
33810;SDS011;20119;48.334;16.206;2023-04-24T04:23:39;10.48;;;8.90;;
33810;SDS011;20119;48.334;16.206;2023-04-24T04:26:07;9.93;;;8.93;;
33810;SDS011;20119;48.334;16.206;2023-04-24T04:28:34;10.05;;;8.02;;
33810;SDS011;20119;48.334;16.206;2023-04-24T04:31:03;8.55;;;7.50;;
33810;SDS011;20119;48.334;16.206;2023-04-24T04:33:32;9.25;;;6.95;;
33810;SDS011;20119;48.334;16.206;2023-04-24T04:38:30;7.68;;;6.35;;
33810;SDS011;20119;48.334;16.206;2023-04-24T04:40:57;6.65;;;5.97;;
33810;SDS011;20119;48.334;16.206;2023-04-24T04:43:25;7.25;;;5.60;;
33810;SDS011;20119;48.334;16.206;2023-04-24T04:45:53;6.78;;;5.57;;
33810;SDS011;20119;48.334;16.206;2023-04-24T04:48:21;6.07;;;5.30;;
33810;SDS011;20119;48.334;16.206;2023-04-24T04:50:50;6.05;;;5.13;;
33810;SDS011;20119;48.334;16.206;2023-04-24T04:53:18;6.35;;;5.00;;
33810;SDS011;20119;48.334;16.206;2023-04-24T04:55:46;5.90;;;5.05;;
33810;SDS011;20119;48.334;16.206;2023-04-24T04:58:14;6.45;;;4.80;;
33810;SDS011;20119;48.334;16.206;2023-04-24T05:00:43;9.00;;;5.15;;
33810;SDS011;20119;48.334;16.206;2023-04-24T05:03:10;6.43;;;5.30;;
33810;SDS011;20119;48.334;16.206;2023-04-24T05:05:38;7.43;;;6.47;;
33810;SDS011;20119;48.334;16.206;2023-04-24T05:08:07;9.82;;;8.73;;
33810;SDS011;20119;48.334;16.206;2023-04-24T05:10:34;6.72;;;5.90;;
33810;SDS011;20119;48.334;16.206;2023-04-24T05:13:02;7.15;;;5.35;;
33810;SDS011;20119;48.334;16.206;2023-04-24T05:15:30;7.78;;;6.70;;
33810;SDS011;20119;48.334;16.206;2023-04-24T05:17:57;6.22;;;4.65;;
33810;SDS011;20119;48.334;16.206;2023-04-24T05:20:25;7.18;;;5.05;;
33810;SDS011;20119;48.334;16.206;2023-04-24T05:22:52;5.38;;;4.78;;
33810;SDS011;20119;48.334;16.206;2023-04-24T05:25:22;5.03;;;4.53;;
33810;SDS011;20119;48.334;16.206;2023-04-24T05:27:50;5.20;;;4.70;;
33810;SDS011;20119;48.334;16.206;2023-04-24T05:30:18;5.78;;;5.10;;
33810;SDS011;20119;48.334;16.206;2023-04-24T05:32:45;7.32;;;4.60;;
33810;SDS011;20119;48.334;16.206;2023-04-24T05:35:13;4.85;;;4.35;;
33810;SDS011;20119;48.334;16.206;2023-04-24T05:37:40;4.63;;;4.22;;
33810;SDS011;20119;48.334;16.206;2023-04-24T05:40:08;4.60;;;4.20;;
33810;SDS011;20119;48.334;16.206;2023-04-24T05:42:38;5.05;;;4.32;;
33810;SDS011;20119;48.334;16.206;2023-04-24T05:45:06;4.72;;;4.28;;
33810;SDS011;20119;48.334;16.206;2023-04-24T05:47:34;4.95;;;4.50;;
33810;SDS011;20119;48.334;16.206;2023-04-24T05:50:03;5.43;;;4.32;;
33810;SDS011;20119;48.334;16.206;2023-04-24T05:52:31;4.80;;;4.22;;
33810;SDS011;20119;48.334;16.206;2023-04-24T05:54:58;8.13;;;4.10;;
33810;SDS011;20119;48.334;16.206;2023-04-24T05:57:27;4.63;;;4.05;;
33810;SDS011;20119;48.334;16.206;2023-04-24T05:59:55;5.32;;;3.70;;
33810;SDS011;20119;48.334;16.206;2023-04-24T06:02:23;3.72;;;3.38;;
33810;SDS011;20119;48.334;16.206;2023-04-24T06:04:51;4.13;;;3.67;;
33810;SDS011;20119;48.334;16.206;2023-04-24T06:07:18;4.40;;;3.90;;
33810;SDS011;20119;48.334;16.206;2023-04-24T06:09:46;3.92;;;3.60;;
33810;SDS011;20119;48.334;16.206;2023-04-24T06:12:14;5.15;;;3.17;;
33810;SDS011;20119;48.334;16.206;2023-04-24T06:14:41;3.60;;;3.30;;
33810;SDS011;20119;48.334;16.206;2023-04-24T06:17:10;4.57;;;3.15;;
33810;SDS011;20119;48.334;16.206;2023-04-24T06:19:38;5.75;;;3.30;;
33810;SDS011;20119;48.334;16.206;2023-04-24T06:22:07;7.25;;;3.25;;
33810;SDS011;20119;48.334;16.206;2023-04-24T06:24:34;3.85;;;3.50;;
33810;SDS011;20119;48.334;16.206;2023-04-24T06:27:02;5.57;;;3.83;;
33810;SDS011;20119;48.334;16.206;2023-04-24T06:29:30;5.28;;;4.00;;
33810;SDS011;20119;48.334;16.206;2023-04-24T06:31:57;4.93;;;4.28;;
33810;SDS011;20119;48.334;16.206;2023-04-24T06:34:27;3.97;;;3.67;;
33810;SDS011;20119;48.334;16.206;2023-04-24T06:36:55;4.78;;;4.32;;
33810;SDS011;20119;48.334;16.206;2023-04-24T06:39:23;4.78;;;4.00;;
33810;SDS011;20119;48.334;16.206;2023-04-24T06:41:51;4.13;;;3.60;;
33810;SDS011;20119;48.334;16.206;2023-04-24T06:44:18;4.93;;;4.00;;
33810;SDS011;20119;48.334;16.206;2023-04-24T06:46:46;4.10;;;3.70;;
33810;SDS011;20119;48.334;16.206;2023-04-24T06:49:13;6.78;;;3.50;;
33810;SDS011;20119;48.334;16.206;2023-04-24T06:51:44;3.90;;;3.47;;
33810;SDS011;20119;48.334;16.206;2023-04-24T06:54:11;3.67;;;3.30;;
33810;SDS011;20119;48.334;16.206;2023-04-24T06:56:39;3.53;;;3.22;;
33810;SDS011;20119;48.334;16.206;2023-04-24T06:59:06;3.95;;;3.30;;
33810;SDS011;20119;48.334;16.206;2023-04-24T07:01:34;3.40;;;3.10;;
33810;SDS011;20119;48.334;16.206;2023-04-24T07:04:01;4.40;;;3.10;;
33810;SDS011;20119;48.334;16.206;2023-04-24T07:06:29;3.22;;;2.92;;
33810;SDS011;20119;48.334;16.206;2023-04-24T07:08:59;3.97;;;3.08;;
33810;SDS011;20119;48.334;16.206;2023-04-24T07:11:26;4.25;;;3.00;;
33810;SDS011;20119;48.334;16.206;2023-04-24T07:13:54;6.88;;;3.10;;
33810;SDS011;20119;48.334;16.206;2023-04-24T07:16:22;5.63;;;3.50;;
33810;SDS011;20119;48.334;16.206;2023-04-24T07:18:50;5.45;;;3.17;;
33810;SDS011;20119;48.334;16.206;2023-04-24T07:21:18;3.75;;;3.15;;
33810;SDS011;20119;48.334;16.206;2023-04-24T07:23:46;4.18;;;3.20;;
33810;SDS011;20119;48.334;16.206;2023-04-24T07:26:15;3.38;;;3.08;;
33810;SDS011;20119;48.334;16.206;2023-04-24T07:28:43;4.07;;;3.67;;
33810;SDS011;20119;48.334;16.206;2023-04-24T07:31:10;4.30;;;3.90;;
33810;SDS011;20119;48.334;16.206;2023-04-24T07:33:38;4.20;;;3.80;;
33810;SDS011;20119;48.334;16.206;2023-04-24T07:36:06;4.50;;;3.90;;
33810;SDS011;20119;48.334;16.206;2023-04-24T07:38:40;4.45;;;3.78;;
33810;SDS011;20119;48.334;16.206;2023-04-24T07:41:07;4.07;;;3.40;;
33810;SDS011;20119;48.334;16.206;2023-04-24T07:43:38;3.40;;;3.10;;
33810;SDS011;20119;48.334;16.206;2023-04-24T07:46:05;5.28;;;3.30;;
33810;SDS011;20119;48.334;16.206;2023-04-24T07:48:32;5.18;;;3.20;;
33810;SDS011;20119;48.334;16.206;2023-04-24T07:51:00;2.92;;;2.70;;
33810;SDS011;20119;48.334;16.206;2023-04-24T07:53:27;2.50;;;2.30;;
33810;SDS011;20119;48.334;16.206;2023-04-24T07:55:55;2.88;;;2.47;;
33810;SDS011;20119;48.334;16.206;2023-04-24T07:58:23;3.50;;;2.40;;
33810;SDS011;20119;48.334;16.206;2023-04-24T08:00:52;3.15;;;2.80;;
33810;SDS011;20119;48.334;16.206;2023-04-24T08:03:19;4.40;;;2.63;;
33810;SDS011;20119;48.334;16.206;2023-04-24T08:06:06;4.22;;;2.63;;
33810;SDS011;20119;48.334;16.206;2023-04-24T08:08:33;5.25;;;2.60;;
33810;SDS011;20119;48.334;16.206;2023-04-24T08:11:01;2.60;;;2.40;;
33810;SDS011;20119;48.334;16.206;2023-04-24T08:13:29;3.42;;;2.20;;
33810;SDS011;20119;48.334;16.206;2023-04-24T08:15:57;5.00;;;2.47;;
33810;SDS011;20119;48.334;16.206;2023-04-24T08:18:25;2.25;;;2.05;;
33810;SDS011;20119;48.334;16.206;2023-04-24T08:20:52;2.72;;;2.25;;
33810;SDS011;20119;48.334;16.206;2023-04-24T08:23:20;2.55;;;1.90;;
33810;SDS011;20119;48.334;16.206;2023-04-24T08:25:48;1.95;;;1.75;;
33810;SDS011;20119;48.334;16.206;2023-04-24T08:28:16;1.98;;;1.77;;
33810;SDS011;20119;48.334;16.206;2023-04-24T08:30:45;2.22;;;1.77;;
33810;SDS011;20119;48.334;16.206;2023-04-24T08:33:14;1.70;;;1.60;;
33810;SDS011;20119;48.334;16.206;2023-04-24T08:38:11;2.65;;;1.10;;
33810;SDS011;20119;48.334;16.206;2023-04-24T08:40:39;2.60;;;1.05;;
33810;SDS011;20119;48.334;16.206;2023-04-24T08:43:06;2.60;;;1.25;;
33810;SDS011;20119;48.334;16.206;2023-04-24T08:45:34;2.00;;;1.00;;
33810;SDS011;20119;48.334;16.206;2023-04-24T08:48:03;1.38;;;1.10;;
33810;SDS011;20119;48.334;16.206;2023-04-24T08:50:36;2.30;;;1.30;;
33810;SDS011;20119;48.334;16.206;2023-04-24T08:53:06;1.98;;;1.05;;
33810;SDS011;20119;48.334;16.206;2023-04-24T08:55:34;2.95;;;1.10;;
33810;SDS011;20119;48.334;16.206;2023-04-24T08:58:21;1.20;;;0.90;;
33810;SDS011;20119;48.334;16.206;2023-04-24T09:00:51;2.30;;;0.90;;
33810;SDS011;20119;48.334;16.206;2023-04-24T09:03:21;1.35;;;1.00;;
33810;SDS011;20119;48.334;16.206;2023-04-24T09:05:51;1.55;;;0.90;;
33810;SDS011;20119;48.334;16.206;2023-04-24T09:08:20;2.30;;;0.82;;
33810;SDS011;20119;48.334;16.206;2023-04-24T09:10:53;1.42;;;0.90;;
33810;SDS011;20119;48.334;16.206;2023-04-24T09:13:23;2.05;;;1.05;;
33810;SDS011;20119;48.334;16.206;2023-04-24T09:15:51;2.63;;;0.93;;
33810;SDS011;20119;48.334;16.206;2023-04-24T09:18:19;1.02;;;0.85;;
33810;SDS011;20119;48.334;16.206;2023-04-24T09:21:00;3.72;;;1.00;;
33810;SDS011;20119;48.334;16.206;2023-04-24T09:23:29;1.05;;;0.90;;
33810;SDS011;20119;48.334;16.206;2023-04-24T09:25:58;1.58;;;1.20;;
33810;SDS011;20119;48.334;16.206;2023-04-24T09:28:29;2.42;;;1.20;;
33810;SDS011;20119;48.334;16.206;2023-04-24T09:31:03;2.55;;;1.20;;
33810;SDS011;20119;48.334;16.206;2023-04-24T09:33:33;3.78;;;1.27;;
33810;SDS011;20119;48.334;16.206;2023-04-24T09:36:03;1.98;;;1.40;;
33810;SDS011;20119;48.334;16.206;2023-04-24T09:38:31;3.20;;;1.25;;
33810;SDS011;20119;48.334;16.206;2023-04-24T09:41:00;1.75;;;1.10;;
33810;SDS011;20119;48.334;16.206;2023-04-24T09:43:30;2.05;;;1.25;;
33810;SDS011;20119;48.334;16.206;2023-04-24T09:45:58;5.07;;;1.70;;
33810;SDS011;20119;48.334;16.206;2023-04-24T09:48:30;3.08;;;1.27;;
33810;SDS011;20119;48.334;16.206;2023-04-24T09:50:59;2.80;;;1.30;;
33810;SDS011;20119;48.334;16.206;2023-04-24T09:53:29;1.85;;;1.30;;
33810;SDS011;20119;48.334;16.206;2023-04-24T09:56:01;2.85;;;1.00;;
33810;SDS011;20119;48.334;16.206;2023-04-24T09:58:29;2.28;;;1.20;;
33810;SDS011;20119;48.334;16.206;2023-04-24T10:00:56;3.53;;;1.33;;
33810;SDS011;20119;48.334;16.206;2023-04-24T10:03:24;1.70;;;1.20;;
33810;SDS011;20119;48.334;16.206;2023-04-24T10:05:57;3.08;;;1.30;;
33810;SDS011;20119;48.334;16.206;2023-04-24T10:10:55;2.22;;;1.25;;
33810;SDS011;20119;48.334;16.206;2023-04-24T10:13:23;6.43;;;1.48;;
33810;SDS011;20119;48.334;16.206;2023-04-24T10:15:51;1.60;;;1.35;;
33810;SDS011;20119;48.334;16.206;2023-04-24T10:18:20;1.80;;;1.60;;
33810;SDS011;20119;48.334;16.206;2023-04-24T10:20:49;3.28;;;1.40;;
33810;SDS011;20119;48.334;16.206;2023-04-24T10:23:16;1.48;;;1.30;;
33810;SDS011;20119;48.334;16.206;2023-04-24T10:25:46;1.40;;;1.30;;
33810;SDS011;20119;48.334;16.206;2023-04-24T10:28:17;1.80;;;1.38;;
33810;SDS011;20119;48.334;16.206;2023-04-24T10:30:45;2.42;;;1.30;;
33810;SDS011;20119;48.334;16.206;2023-04-24T10:33:16;1.90;;;1.42;;
33810;SDS011;20119;48.334;16.206;2023-04-24T10:35:44;2.72;;;1.40;;
33810;SDS011;20119;48.334;16.206;2023-04-24T10:38:16;3.60;;;1.58;;
33810;SDS011;20119;48.334;16.206;2023-04-24T10:40:49;2.58;;;1.60;;
33810;SDS011;20119;48.334;16.206;2023-04-24T10:43:18;1.85;;;1.60;;
33810;SDS011;20119;48.334;16.206;2023-04-24T10:46:00;1.77;;;1.58;;
33810;SDS011;20119;48.334;16.206;2023-04-24T10:48:28;1.50;;;1.40;;
33810;SDS011;20119;48.334;16.206;2023-04-24T10:50:57;2.30;;;1.67;;
33810;SDS011;20119;48.334;16.206;2023-04-24T10:53:27;2.78;;;1.80;;
33810;SDS011;20119;48.334;16.206;2023-04-24T10:58:39;1.83;;;1.73;;
33810;SDS011;20119;48.334;16.206;2023-04-24T11:01:11;2.45;;;2.00;;
33810;SDS011;20119;48.334;16.206;2023-04-24T11:03:54;2.28;;;2.08;;
33810;SDS011;20119;48.334;16.206;2023-04-24T11:06:28;2.53;;;2.33;;
33810;SDS011;20119;48.334;16.206;2023-04-24T11:08:59;3.63;;;2.33;;
33810;SDS011;20119;48.334;16.206;2023-04-24T11:11:32;2.90;;;2.60;;
33810;SDS011;20119;48.334;16.206;2023-04-24T11:14:02;3.03;;;2.30;;
33810;SDS011;20119;48.334;16.206;2023-04-24T11:16:34;3.45;;;2.58;;
33810;SDS011;20119;48.334;16.206;2023-04-24T11:19:04;3.00;;;2.70;;
33810;SDS011;20119;48.334;16.206;2023-04-24T11:21:40;3.13;;;2.80;;
33810;SDS011;20119;48.334;16.206;2023-04-24T11:24:29;3.10;;;2.65;;
33810;SDS011;20119;48.334;16.206;2023-04-24T11:26:58;2.70;;;2.50;;
33810;SDS011;20119;48.334;16.206;2023-04-24T11:29:40;3.47;;;2.90;;
33810;SDS011;20119;48.334;16.206;2023-04-24T11:32:19;3.60;;;3.30;;
33810;SDS011;20119;48.334;16.206;2023-04-24T11:34:50;3.70;;;3.10;;
33810;SDS011;20119;48.334;16.206;2023-04-24T11:37:19;3.65;;;3.30;;
33810;SDS011;20119;48.334;16.206;2023-04-24T11:39:46;3.60;;;3.30;;
33810;SDS011;20119;48.334;16.206;2023-04-24T11:42:17;3.75;;;3.25;;
33810;SDS011;20119;48.334;16.206;2023-04-24T11:44:47;4.00;;;3.70;;
33810;SDS011;20119;48.334;16.206;2023-04-24T11:47:15;4.90;;;4.13;;
33810;SDS011;20119;48.334;16.206;2023-04-24T11:49:44;5.00;;;4.18;;
33810;SDS011;20119;48.334;16.206;2023-04-24T11:54:58;6.78;;;4.32;;
33810;SDS011;20119;48.334;16.206;2023-04-24T11:57:26;4.05;;;3.75;;
33810;SDS011;20119;48.334;16.206;2023-04-24T12:00:00;5.70;;;3.67;;
33810;SDS011;20119;48.334;16.206;2023-04-24T12:02:28;4.50;;;4.10;;
33810;SDS011;20119;48.334;16.206;2023-04-24T12:04:55;5.93;;;3.53;;
33810;SDS011;20119;48.334;16.206;2023-04-24T12:07:23;3.65;;;3.35;;
33810;SDS011;20119;48.334;16.206;2023-04-24T12:09:55;4.63;;;3.05;;
33810;SDS011;20119;48.334;16.206;2023-04-24T12:12:25;3.00;;;2.70;;
33810;SDS011;20119;48.334;16.206;2023-04-24T12:14:54;3.50;;;2.67;;
33810;SDS011;20119;48.334;16.206;2023-04-24T12:17:25;2.58;;;1.80;;
33810;SDS011;20119;48.334;16.206;2023-04-24T12:19:57;2.47;;;1.70;;
33810;SDS011;20119;48.334;16.206;2023-04-24T12:22:26;2.70;;;1.85;;
33810;SDS011;20119;48.334;16.206;2023-04-24T12:30:05;1.83;;;1.40;;
33810;SDS011;20119;48.334;16.206;2023-04-24T12:32:43;1.40;;;1.30;;
33810;SDS011;20119;48.334;16.206;2023-04-24T12:40:24;1.73;;;1.30;;
33810;SDS011;20119;48.334;16.206;2023-04-24T12:42:51;1.65;;;1.33;;
33810;SDS011;20119;48.334;16.206;2023-04-24T12:45:20;2.90;;;1.08;;
33810;SDS011;20119;48.334;16.206;2023-04-24T12:47:51;1.30;;;1.10;;
33810;SDS011;20119;48.334;16.206;2023-04-24T12:50:18;1.10;;;1.00;;
33810;SDS011;20119;48.334;16.206;2023-04-24T12:52:46;1.67;;;1.13;;
33810;SDS011;20119;48.334;16.206;2023-04-24T12:55:13;2.13;;;1.10;;
33810;SDS011;20119;48.334;16.206;2023-04-24T12:57:41;1.30;;;1.00;;
33810;SDS011;20119;48.334;16.206;2023-04-24T13:00:08;1.20;;;1.10;;
33810;SDS011;20119;48.334;16.206;2023-04-24T13:02:36;2.15;;;1.13;;
33810;SDS011;20119;48.334;16.206;2023-04-24T13:05:06;1.33;;;1.20;;
33810;SDS011;20119;48.334;16.206;2023-04-24T13:07:33;1.83;;;1.30;;
33810;SDS011;20119;48.334;16.206;2023-04-24T13:10:01;3.45;;;1.80;;
33810;SDS011;20119;48.334;16.206;2023-04-24T13:12:30;2.20;;;2.00;;
33810;SDS011;20119;48.334;16.206;2023-04-24T13:14:57;3.05;;;1.80;;
33810;SDS011;20119;48.334;16.206;2023-04-24T13:17:28;2.13;;;1.75;;
33810;SDS011;20119;48.334;16.206;2023-04-24T13:19:55;1.60;;;1.50;;
33810;SDS011;20119;48.334;16.206;2023-04-24T13:22:25;2.15;;;1.50;;
33810;SDS011;20119;48.334;16.206;2023-04-24T13:24:52;1.70;;;1.50;;
33810;SDS011;20119;48.334;16.206;2023-04-24T13:27:20;1.55;;;1.33;;
33810;SDS011;20119;48.334;16.206;2023-04-24T13:29:47;1.50;;;1.35;;
33810;SDS011;20119;48.334;16.206;2023-04-24T13:32:16;1.40;;;1.30;;
33810;SDS011;20119;48.334;16.206;2023-04-24T13:34:44;1.63;;;1.23;;
33810;SDS011;20119;48.334;16.206;2023-04-24T13:37:12;1.73;;;1.38;;
33810;SDS011;20119;48.334;16.206;2023-04-24T13:39:41;3.63;;;1.42;;
33810;SDS011;20119;48.334;16.206;2023-04-24T13:42:08;1.50;;;1.40;;
33810;SDS011;20119;48.334;16.206;2023-04-24T13:44:36;2.10;;;1.60;;
33810;SDS011;20119;48.334;16.206;2023-04-24T13:49:38;3.35;;;2.00;;
33810;SDS011;20119;48.334;16.206;2023-04-24T14:02:46;1.20;;;1.10;;
33810;SDS011;20119;48.334;16.206;2023-04-24T14:05:14;1.20;;;1.00;;
33810;SDS011;20119;48.334;16.206;2023-04-24T14:07:41;2.40;;;0.95;;
33810;SDS011;20119;48.334;16.206;2023-04-24T14:10:08;2.72;;;1.25;;
33810;SDS011;20119;48.334;16.206;2023-04-24T14:12:36;1.15;;;1.05;;
33810;SDS011;20119;48.334;16.206;2023-04-24T14:15:04;2.78;;;1.80;;
33810;SDS011;20119;48.334;16.206;2023-04-24T14:17:33;2.10;;;1.90;;
33810;SDS011;20119;48.334;16.206;2023-04-24T14:20:03;2.72;;;1.38;;
33810;SDS011;20119;48.334;16.206;2023-04-24T14:22:30;1.60;;;1.50;;
33810;SDS011;20119;48.334;16.206;2023-04-24T14:24:57;1.17;;;0.93;;
33810;SDS011;20119;48.334;16.206;2023-04-24T14:27:26;2.05;;;1.42;;
33810;SDS011;20119;48.334;16.206;2023-04-24T14:29:55;2.45;;;1.40;;
33810;SDS011;20119;48.334;16.206;2023-04-24T14:32:22;2.30;;;1.85;;
33810;SDS011;20119;48.334;16.206;2023-04-24T14:34:50;3.90;;;2.13;;
33810;SDS011;20119;48.334;16.206;2023-04-24T14:37:20;3.00;;;2.20;;
33810;SDS011;20119;48.334;16.206;2023-04-24T14:39:48;5.38;;;2.30;;
33810;SDS011;20119;48.334;16.206;2023-04-24T14:42:16;2.42;;;2.20;;
33810;SDS011;20119;48.334;16.206;2023-04-24T14:44:45;3.38;;;2.70;;
33810;SDS011;20119;48.334;16.206;2023-04-24T14:47:13;5.00;;;2.47;;
33810;SDS011;20119;48.334;16.206;2023-04-24T14:49:42;4.10;;;2.58;;
33810;SDS011;20119;48.334;16.206;2023-04-24T14:52:10;5.03;;;2.72;;
33810;SDS011;20119;48.334;16.206;2023-04-24T14:54:40;3.30;;;2.55;;
33810;SDS011;20119;48.334;16.206;2023-04-24T14:59:42;3.63;;;2.45;;
33810;SDS011;20119;48.334;16.206;2023-04-24T15:02:14;3.53;;;2.65;;
33810;SDS011;20119;48.334;16.206;2023-04-24T15:04:41;3.28;;;2.90;;
33810;SDS011;20119;48.334;16.206;2023-04-24T15:07:08;3.15;;;2.85;;
33810;SDS011;20119;48.334;16.206;2023-04-24T15:09:36;3.30;;;3.00;;
33810;SDS011;20119;48.334;16.206;2023-04-24T15:12:22;4.28;;;3.20;;
33810;SDS011;20119;48.334;16.206;2023-04-24T15:14:52;3.72;;;2.90;;
33810;SDS011;20119;48.334;16.206;2023-04-24T15:17:20;2.63;;;2.42;;